createdAt,value
2017-09-21T00:02:16.675Z,6.17
2017-09-21T00:04:44.219Z,6.47
2017-09-21T00:07:12.177Z,6.30
2017-09-21T00:09:40.021Z,6.60
2017-09-21T00:12:08.301Z,6.23
2017-09-21T00:14:35.835Z,5.57
2017-09-21T00:17:03.368Z,5.63
2017-09-21T00:19:30.891Z,5.30
2017-09-21T00:21:58.391Z,6.20
2017-09-21T00:24:25.966Z,5.67
2017-09-21T00:26:54.269Z,5.50
2017-09-21T00:29:22.551Z,5.90
2017-09-21T00:31:50.100Z,5.53
2017-09-21T00:34:17.781Z,5.53
2017-09-21T00:36:45.305Z,4.77
2017-09-21T00:39:13.602Z,5.03
2017-09-21T00:41:41.153Z,5.87
2017-09-21T00:44:08.683Z,4.50
2017-09-21T00:46:36.960Z,5.67
2017-09-21T00:49:05.261Z,5.57
2017-09-21T00:51:32.800Z,6.17
2017-09-21T00:54:00.357Z,5.50
2017-09-21T00:56:28.645Z,5.53
2017-09-21T00:58:57.365Z,5.70
2017-09-21T01:01:33.423Z,6.17
2017-09-21T01:04:00.970Z,5.73
2017-09-21T01:06:28.514Z,6.57
2017-09-21T01:08:56.069Z,6.90
2017-09-21T01:11:23.613Z,5.43
2017-09-21T01:13:51.933Z,5.70
2017-09-21T01:16:19.496Z,6.40
2017-09-21T01:18:47.006Z,5.33
2017-09-21T01:21:16.451Z,6.40
2017-09-21T01:23:43.999Z,5.90
2017-09-21T01:26:11.546Z,6.23
2017-09-21T01:28:39.088Z,6.00
2017-09-21T01:31:06.626Z,6.30
2017-09-21T01:33:34.171Z,7.27
2017-09-21T01:36:01.715Z,7.03
2017-09-21T01:38:29.276Z,6.50
2017-09-21T01:40:56.812Z,6.47
2017-09-21T01:43:24.361Z,6.20
2017-09-21T01:45:51.909Z,6.20
2017-09-21T01:48:38.046Z,6.77
2017-09-21T01:51:05.578Z,5.80
2017-09-21T01:53:33.110Z,5.57
2017-09-21T01:56:00.677Z,5.90
2017-09-21T01:58:28.980Z,5.60
2017-09-21T02:00:56.499Z,5.20
2017-09-21T02:03:24.027Z,5.70
2017-09-21T02:05:51.547Z,6.10
2017-09-21T02:08:19.046Z,5.87
2017-09-21T02:10:46.613Z,5.30
2017-09-21T02:13:14.126Z,5.17
2017-09-21T02:15:41.920Z,5.70
2017-09-21T02:18:09.441Z,4.90
2017-09-21T02:20:36.973Z,6.27
2017-09-21T02:23:04.495Z,5.00
2017-09-21T02:25:32.027Z,4.90
2017-09-21T02:27:59.559Z,4.77
2017-09-21T02:30:27.846Z,5.53
2017-09-21T02:32:55.743Z,5.00
2017-09-21T02:35:23.269Z,5.30
2017-09-21T02:37:51.556Z,6.07
2017-09-21T02:40:19.093Z,5.90
2017-09-21T02:42:46.631Z,5.63
2017-09-21T02:45:14.483Z,4.80
2017-09-21T02:47:42.000Z,4.83
2017-09-21T02:50:09.524Z,4.93
2017-09-21T02:52:37.047Z,5.63
2017-09-21T02:55:04.579Z,5.20
2017-09-21T02:57:32.116Z,5.50
2017-09-21T02:59:59.635Z,5.33
2017-09-21T03:02:27.496Z,6.03
2017-09-21T03:04:55.028Z,6.20
2017-09-21T03:07:22.534Z,6.53
2017-09-21T03:09:50.096Z,5.37
2017-09-21T03:12:17.617Z,6.10
2017-09-21T03:14:45.162Z,6.00
2017-09-21T03:17:12.674Z,6.80
2017-09-21T03:19:40.238Z,6.73
2017-09-21T03:22:07.782Z,5.47
2017-09-21T03:24:35.596Z,6.40
2017-09-21T03:27:03.209Z,6.13
2017-09-21T03:29:30.784Z,6.30
2017-09-21T03:31:58.380Z,6.70
2017-09-21T03:34:26.019Z,5.47
2017-09-21T03:36:53.768Z,5.03
2017-09-21T03:39:22.066Z,5.40
2017-09-21T03:41:49.597Z,5.90
2017-09-21T03:44:17.126Z,6.13
2017-09-21T03:46:44.649Z,5.23
2017-09-21T03:49:12.168Z,5.30
2017-09-21T03:51:39.699Z,5.30
2017-09-21T03:54:07.241Z,4.80
2017-09-21T03:56:34.779Z,4.97
2017-09-21T03:59:02.298Z,5.37
2017-09-21T04:01:29.868Z,5.70
2017-09-21T04:03:57.392Z,6.50
2017-09-21T04:06:24.950Z,5.47
2017-09-21T04:08:52.474Z,5.67
2017-09-21T04:11:19.994Z,6.17
2017-09-21T04:13:47.527Z,5.57
2017-09-21T04:16:15.052Z,6.00
2017-09-21T04:18:42.583Z,5.77
2017-09-21T04:21:10.868Z,5.43
2017-09-21T04:23:39.173Z,5.40
2017-09-21T04:26:06.712Z,5.43
2017-09-21T04:28:35.015Z,6.83
2017-09-21T04:31:02.547Z,5.63
2017-09-21T04:33:30.833Z,5.90
2017-09-21T04:35:59.169Z,7.10
2017-09-21T04:38:26.898Z,7.10
2017-09-21T04:40:55.377Z,5.60
2017-09-21T04:43:22.914Z,5.63
2017-09-21T04:45:50.463Z,5.60
2017-09-21T04:48:17.996Z,5.93
2017-09-21T04:50:45.533Z,7.50
2017-09-21T04:53:13.117Z,9.80
2017-09-21T04:55:41.419Z,7.70
2017-09-21T04:58:09.729Z,9.53
2017-09-21T05:00:38.040Z,7.73
2017-09-21T05:03:05.586Z,6.77
2017-09-21T05:05:33.146Z,7.03
2017-09-21T05:08:00.704Z,6.27
2017-09-21T05:10:28.507Z,6.20
2017-09-21T05:12:56.046Z,5.80
2017-09-21T05:15:24.639Z,6.00
2017-09-21T05:17:52.923Z,6.40
2017-09-21T05:20:20.462Z,5.87
2017-09-21T05:22:48.022Z,5.43
2017-09-21T05:25:15.548Z,5.80
2017-09-21T05:27:43.293Z,5.90
2017-09-21T05:30:10.835Z,8.30
2017-09-21T05:32:38.395Z,5.63
2017-09-21T05:35:05.925Z,5.00
2017-09-21T05:37:33.612Z,5.60
2017-09-21T05:40:01.196Z,6.27
2017-09-21T05:42:28.743Z,6.73
2017-09-21T05:44:56.636Z,4.97
2017-09-21T05:47:24.171Z,5.40
2017-09-21T05:49:51.715Z,5.63
2017-09-21T05:52:19.248Z,4.77
2017-09-21T05:54:46.783Z,4.80
2017-09-21T05:57:14.327Z,4.63
2017-09-21T05:59:41.888Z,4.77
2017-09-21T06:02:09.426Z,5.53
2017-09-21T06:04:36.967Z,4.73
2017-09-21T06:07:04.509Z,4.53
2017-09-21T06:09:32.079Z,4.90
2017-09-21T06:12:00.394Z,5.37
2017-09-21T06:14:27.945Z,4.90
2017-09-21T06:16:55.494Z,5.47
2017-09-21T06:19:23.031Z,4.60
2017-09-21T06:21:50.566Z,4.67
2017-09-21T06:24:18.273Z,4.70
2017-09-21T06:26:45.807Z,4.83
2017-09-21T06:29:14.121Z,4.30
2017-09-21T06:31:41.653Z,4.07
2017-09-21T06:34:09.185Z,4.77
2017-09-21T06:36:36.752Z,4.10
2017-09-21T06:39:04.319Z,3.50
2017-09-21T06:41:32.645Z,4.00
2017-09-21T06:44:00.205Z,3.97
2017-09-21T06:46:27.750Z,4.00
2017-09-21T06:48:55.317Z,4.77
2017-09-21T06:51:22.857Z,3.80
2017-09-21T06:53:50.534Z,4.00
2017-09-21T06:56:18.061Z,4.23
2017-09-21T06:58:47.737Z,4.53
2017-09-21T07:01:16.098Z,3.97
2017-09-21T07:03:43.709Z,4.10
2017-09-21T07:06:12.663Z,4.03
2017-09-21T07:08:40.393Z,4.27
2017-09-21T07:11:10.789Z,3.97
2017-09-21T07:13:38.403Z,4.40
2017-09-21T07:16:08.214Z,4.67
2017-09-21T07:18:35.796Z,4.40
2017-09-21T07:21:03.347Z,4.30
2017-09-21T07:23:30.927Z,4.70
2017-09-21T07:25:58.471Z,4.23
2017-09-21T07:28:26.026Z,5.07
2017-09-21T07:30:53.568Z,4.27
2017-09-21T07:33:21.106Z,4.80
2017-09-21T07:35:48.653Z,5.60
2017-09-21T07:38:16.249Z,5.60
2017-09-21T07:40:43.797Z,7.47
2017-09-21T07:43:11.348Z,8.20
2017-09-21T07:45:38.957Z,6.10
2017-09-21T07:48:06.565Z,5.33
2017-09-21T07:50:34.116Z,5.83
2017-09-21T07:53:01.663Z,5.60
2017-09-21T07:55:29.179Z,6.43
2017-09-21T07:57:56.736Z,5.80
2017-09-21T08:00:24.304Z,5.40
2017-09-21T08:02:51.854Z,5.83
2017-09-21T08:05:19.405Z,6.27
2017-09-21T08:07:46.946Z,5.80
2017-09-21T08:10:14.516Z,6.40
2017-09-21T08:12:42.064Z,6.00
2017-09-21T08:15:09.628Z,6.10
2017-09-21T08:17:37.157Z,7.07
2017-09-21T08:20:04.711Z,6.03
2017-09-21T08:22:32.288Z,6.30
2017-09-21T08:25:00.277Z,6.30
2017-09-21T08:27:27.805Z,5.73
2017-09-21T08:29:55.360Z,6.50
2017-09-21T08:32:22.939Z,6.93
2017-09-21T08:34:50.491Z,7.50
2017-09-21T08:37:18.055Z,8.07
2017-09-21T08:39:45.579Z,7.20
2017-09-21T08:42:13.498Z,7.30
2017-09-21T08:44:41.040Z,7.20
2017-09-21T08:47:08.594Z,7.40
2017-09-21T08:49:36.145Z,7.30
2017-09-21T08:52:03.684Z,7.27
2017-09-21T08:54:31.998Z,6.70
2017-09-21T08:56:59.546Z,7.20
2017-09-21T08:59:27.391Z,7.53
2017-09-21T09:01:54.936Z,6.90
2017-09-21T09:04:23.312Z,8.27
2017-09-21T09:06:50.882Z,5.60
2017-09-21T09:09:19.218Z,5.67
2017-09-21T09:11:46.817Z,6.47
2017-09-21T09:14:14.396Z,5.60
2017-09-21T09:16:41.925Z,5.70
2017-09-21T09:19:10.269Z,7.00
2017-09-21T09:21:37.804Z,6.43
2017-09-21T09:24:05.679Z,7.20
2017-09-21T09:26:33.294Z,7.07
2017-09-21T09:29:00.915Z,6.20
2017-09-21T09:31:28.472Z,6.77
2017-09-21T09:33:56.027Z,6.63
2017-09-21T09:36:24.029Z,4.47
2017-09-21T09:38:51.589Z,4.80
2017-09-21T09:41:19.131Z,5.17
2017-09-21T09:43:46.701Z,5.17
2017-09-21T09:46:14.649Z,5.10
2017-09-21T09:48:42.202Z,5.83
2017-09-21T09:51:09.782Z,4.10
2017-09-21T09:53:37.357Z,4.23
2017-09-21T09:56:05.726Z,4.43
2017-09-21T09:58:34.189Z,4.63
2017-09-21T10:01:03.387Z,4.57
2017-09-21T10:03:30.974Z,4.57
2017-09-21T10:05:58.538Z,4.00
2017-09-21T10:08:26.838Z,4.07
2017-09-21T10:10:54.395Z,4.33
2017-09-21T10:13:21.967Z,5.07
2017-09-21T10:15:49.548Z,5.60
2017-09-21T10:18:17.098Z,4.70
2017-09-21T10:20:44.656Z,4.33
2017-09-21T10:23:12.210Z,3.87
2017-09-21T10:25:39.771Z,4.50
2017-09-21T10:28:07.357Z,3.70
2017-09-21T10:30:34.917Z,2.83
2017-09-21T10:33:02.430Z,3.50
2017-09-21T10:35:30.029Z,3.13
2017-09-21T10:37:57.580Z,3.40
2017-09-21T10:40:25.467Z,3.50
2017-09-21T10:42:53.041Z,3.60
2017-09-21T10:45:20.604Z,3.53
2017-09-21T10:47:48.158Z,3.40
2017-09-21T10:50:15.735Z,3.87
2017-09-21T10:52:44.473Z,3.00
2017-09-21T10:55:12.017Z,3.07
2017-09-21T10:57:39.549Z,3.50
2017-09-21T11:00:07.900Z,3.50
2017-09-21T11:02:35.467Z,3.27
2017-09-21T11:05:03.802Z,3.33
2017-09-21T11:07:31.334Z,3.73
2017-09-21T11:09:58.907Z,3.80
2017-09-21T11:12:26.506Z,3.10
2017-09-21T11:14:54.096Z,2.90
2017-09-21T11:17:21.675Z,3.20
2017-09-21T11:19:49.219Z,3.07
2017-09-21T11:22:16.789Z,3.00
2017-09-21T11:24:44.344Z,3.40
2017-09-21T11:27:11.920Z,3.20
2017-09-21T11:29:39.475Z,3.17
2017-09-21T11:32:07.048Z,2.90
2017-09-21T11:34:35.052Z,3.50
2017-09-21T11:37:02.582Z,3.00
2017-09-21T11:39:30.130Z,3.00
2017-09-21T11:41:57.684Z,4.00
2017-09-21T11:44:25.210Z,3.20
2017-09-21T11:46:52.766Z,4.00
2017-09-21T11:49:21.091Z,3.60
2017-09-21T11:51:48.649Z,4.00
2017-09-21T11:54:16.222Z,3.53
2017-09-21T11:56:43.809Z,3.93
2017-09-21T11:59:11.420Z,4.27
2017-09-21T12:01:38.958Z,3.50
2017-09-21T12:04:07.290Z,3.57
2017-09-21T12:06:34.844Z,3.70
2017-09-21T12:09:02.421Z,3.47
2017-09-21T12:11:29.975Z,3.63
2017-09-21T12:13:57.633Z,3.50
2017-09-21T12:16:25.198Z,3.80
2017-09-21T12:18:52.778Z,4.10
2017-09-21T12:21:21.167Z,3.60
2017-09-21T12:23:48.734Z,3.10
2017-09-21T12:26:17.066Z,4.10
2017-09-21T12:28:44.660Z,3.70
2017-09-21T12:31:12.959Z,4.20
2017-09-21T12:33:40.516Z,3.80
2017-09-21T12:36:08.064Z,3.70
2017-09-21T12:38:35.618Z,3.67
2017-09-21T12:41:03.227Z,4.60
2017-09-21T12:43:30.787Z,3.90
2017-09-21T12:45:58.351Z,3.70
2017-09-21T12:48:25.921Z,3.70
2017-09-21T12:50:53.469Z,3.30
2017-09-21T12:53:21.062Z,3.50
2017-09-21T12:55:49.377Z,3.90
2017-09-21T12:58:16.969Z,3.20
2017-09-21T13:00:44.514Z,3.30
2017-09-21T13:03:12.111Z,3.57
2017-09-21T13:05:40.448Z,3.90
2017-09-21T13:08:07.996Z,3.00
2017-09-21T13:10:35.535Z,3.37
2017-09-21T13:13:03.082Z,3.70
2017-09-21T13:15:30.607Z,3.90
2017-09-21T13:17:58.149Z,4.63
2017-09-21T13:20:25.693Z,3.57
2017-09-21T13:22:53.238Z,4.00
2017-09-21T13:25:20.793Z,4.10
2017-09-21T13:27:48.324Z,4.50
2017-09-21T13:30:16.649Z,4.50
2017-09-21T13:32:44.300Z,4.20
2017-09-21T13:35:11.882Z,4.40
2017-09-21T13:37:39.456Z,5.00
2017-09-21T13:40:06.977Z,5.03
2017-09-21T13:42:34.547Z,5.30
2017-09-21T13:45:02.079Z,5.20
2017-09-21T13:47:29.637Z,6.20
2017-09-21T13:49:57.997Z,5.10
2017-09-21T13:52:25.537Z,5.10
2017-09-21T13:54:53.119Z,5.93
2017-09-21T13:57:20.695Z,5.83
2017-09-21T13:59:49.023Z,4.97
2017-09-21T14:02:16.543Z,5.40
2017-09-21T14:04:44.413Z,5.50
2017-09-21T14:07:11.942Z,5.77
2017-09-21T14:09:40.238Z,6.10
2017-09-21T14:12:07.789Z,6.40
2017-09-21T14:14:35.330Z,7.10
2017-09-21T14:17:03.653Z,6.10
2017-09-21T14:19:31.215Z,5.70
2017-09-21T14:21:59.106Z,6.47
2017-09-21T14:24:26.660Z,6.27
2017-09-21T14:26:54.195Z,6.40
2017-09-21T14:29:21.731Z,6.17
2017-09-21T14:31:49.272Z,5.50
2017-09-21T14:34:17.219Z,5.97
2017-09-21T14:36:44.757Z,6.10
2017-09-21T14:39:12.302Z,7.00
2017-09-21T14:41:39.859Z,6.43
2017-09-21T14:44:07.379Z,7.03
2017-09-21T14:46:34.929Z,5.83
2017-09-21T14:49:03.248Z,6.57
2017-09-21T14:51:30.783Z,6.57
2017-09-21T14:53:58.385Z,7.03
2017-09-21T14:56:25.968Z,5.90
2017-09-21T14:58:53.551Z,7.23
2017-09-21T15:01:21.848Z,7.20
2017-09-21T15:03:49.402Z,7.10
2017-09-21T15:06:16.969Z,7.43
2017-09-21T15:08:44.522Z,6.23
2017-09-21T15:11:12.064Z,6.73
2017-09-21T15:13:39.641Z,7.17
2017-09-21T15:16:07.211Z,6.97
2017-09-21T15:18:34.788Z,6.53
2017-09-21T15:21:02.361Z,6.50
2017-09-21T15:23:29.873Z,6.20
2017-09-21T15:25:58.208Z,7.17
2017-09-21T15:28:25.757Z,7.70
2017-09-21T15:30:54.383Z,7.23
2017-09-21T15:33:21.962Z,7.03
2017-09-21T15:35:49.750Z,7.10
2017-09-21T15:38:17.314Z,6.27
2017-09-21T15:40:44.883Z,6.20
2017-09-21T15:43:12.449Z,7.20
2017-09-21T15:45:40.006Z,7.50
2017-09-21T15:48:07.812Z,7.10
2017-09-21T15:50:36.133Z,6.90
2017-09-21T15:53:03.688Z,6.70
2017-09-21T15:55:31.261Z,7.50
2017-09-21T15:57:58.794Z,7.00
2017-09-21T16:00:26.344Z,6.93
2017-09-21T16:02:53.908Z,6.40
2017-09-21T16:05:21.488Z,7.13
2017-09-21T16:07:49.051Z,6.80
2017-09-21T16:10:16.613Z,6.83
2017-09-21T16:12:44.208Z,7.23
2017-09-21T16:15:12.095Z,6.60
2017-09-21T16:17:40.398Z,6.80
2017-09-21T16:20:07.941Z,6.80
2017-09-21T16:22:35.497Z,7.37
2017-09-21T16:25:03.054Z,8.40
2017-09-21T16:27:30.601Z,8.50
2017-09-21T16:29:58.922Z,8.00
2017-09-21T16:32:26.490Z,8.60
2017-09-21T16:34:54.042Z,8.60
2017-09-21T16:37:21.619Z,7.63
2017-09-21T16:39:49.221Z,8.07
2017-09-21T16:42:17.565Z,8.73
2017-09-21T16:44:45.132Z,8.03
2017-09-21T16:47:12.730Z,8.50
2017-09-21T16:49:40.327Z,7.90
2017-09-21T16:52:07.878Z,8.60
2017-09-21T16:54:35.441Z,7.77
2017-09-21T16:57:03.018Z,7.57
2017-09-21T16:59:30.597Z,8.10
2017-09-21T17:01:58.945Z,8.23
2017-09-21T17:04:26.497Z,7.90
2017-09-21T17:06:54.053Z,8.10
2017-09-21T17:09:21.614Z,8.33
2017-09-21T17:11:49.178Z,7.10
2017-09-21T17:14:16.729Z,8.03
2017-09-21T17:16:44.270Z,8.50
2017-09-21T17:19:11.831Z,8.20
2017-09-21T17:21:39.412Z,7.73
2017-09-21T17:24:07.014Z,7.33
2017-09-21T17:26:34.560Z,7.90
2017-09-21T17:29:02.125Z,7.43
2017-09-21T17:31:29.685Z,7.07
2017-09-21T17:33:57.259Z,7.00
2017-09-21T17:36:24.822Z,7.43
2017-09-21T17:38:53.902Z,7.27
2017-09-21T17:41:22.253Z,7.70
2017-09-21T17:43:50.147Z,7.33
2017-09-21T17:46:19.963Z,9.00
2017-09-21T17:48:48.353Z,7.73
2017-09-21T17:51:16.197Z,7.63
2017-09-21T17:53:43.722Z,7.50
2017-09-21T17:56:12.163Z,7.20
2017-09-21T17:58:40.463Z,8.67
2017-09-21T18:01:08.044Z,9.30
2017-09-21T18:03:36.419Z,8.80
2017-09-21T18:06:03.993Z,8.87
2017-09-21T18:08:31.602Z,10.13
2017-09-21T18:10:59.201Z,8.60
2017-09-21T18:13:26.777Z,9.60
2017-09-21T18:15:54.360Z,9.80
2017-09-21T18:18:21.946Z,8.97
2017-09-21T18:20:50.288Z,9.50
2017-09-21T18:23:17.906Z,7.97
2017-09-21T18:25:45.473Z,8.83
2017-09-21T18:28:13.066Z,8.20
2017-09-21T18:30:40.626Z,7.80
2017-09-21T18:33:08.174Z,7.43
2017-09-21T18:35:35.747Z,8.80
2017-09-21T18:38:03.372Z,8.80
2017-09-21T18:40:31.038Z,9.00
2017-09-21T18:42:59.684Z,8.50
2017-09-21T18:45:27.344Z,8.50
2017-09-21T18:47:54.939Z,8.90
2017-09-21T18:50:22.500Z,8.43
2017-09-21T18:52:50.107Z,7.77
2017-09-21T18:55:18.573Z,8.30
2017-09-21T18:57:47.914Z,9.27
2017-09-21T19:00:15.535Z,9.20
2017-09-21T19:02:43.105Z,9.17
2017-09-21T19:05:11.725Z,9.43
2017-09-21T19:07:39.346Z,8.37
2017-09-21T19:10:06.933Z,9.13
2017-09-21T19:12:34.871Z,8.90
2017-09-21T19:15:05.298Z,8.90
2017-09-21T19:17:33.629Z,9.03
2017-09-21T19:20:01.203Z,8.60
2017-09-21T19:22:28.738Z,7.63
2017-09-21T19:24:56.308Z,8.53
2017-09-21T19:27:23.875Z,8.20
2017-09-21T19:29:51.493Z,8.30
2017-09-21T19:32:19.088Z,8.77
2017-09-21T19:34:46.665Z,8.43
2017-09-21T19:37:14.264Z,9.20
2017-09-21T19:39:41.824Z,8.10
2017-09-21T19:42:09.398Z,8.73
2017-09-21T19:44:36.962Z,9.33
2017-09-21T19:47:04.500Z,9.00
2017-09-21T19:49:32.106Z,8.77
2017-09-21T19:51:59.720Z,8.63
2017-09-21T19:54:28.487Z,9.33
2017-09-21T19:56:56.045Z,9.00
2017-09-21T19:59:23.637Z,10.27
2017-09-21T20:01:51.249Z,9.80
2017-09-21T20:04:18.826Z,9.13
2017-09-21T20:06:46.361Z,10.50
2017-09-21T20:09:13.950Z,9.20
2017-09-21T20:11:41.584Z,8.97
2017-09-21T20:14:09.169Z,9.37
2017-09-21T20:16:36.740Z,10.30
2017-09-21T20:19:04.307Z,9.97
2017-09-21T20:21:31.867Z,9.97
2017-09-21T20:24:00.203Z,8.70
2017-09-21T20:26:27.747Z,9.00
2017-09-21T20:28:55.318Z,8.87
2017-09-21T20:31:22.900Z,9.20
2017-09-21T20:33:50.519Z,9.10
2017-09-21T20:36:18.033Z,8.93
2017-09-21T20:38:45.591Z,9.10
2017-09-21T20:41:13.213Z,9.10
2017-09-21T20:43:41.622Z,9.63
2017-09-21T20:46:09.874Z,9.10
2017-09-21T20:48:37.469Z,8.63
2017-09-21T20:51:05.029Z,7.43
2017-09-21T20:53:32.548Z,7.63
2017-09-21T20:56:00.103Z,8.27
2017-09-21T20:58:27.651Z,9.23
2017-09-21T21:00:55.179Z,9.00
2017-09-21T21:03:22.730Z,8.73
2017-09-21T21:05:51.040Z,9.50
2017-09-21T21:08:18.613Z,9.07
2017-09-21T21:10:46.212Z,8.70
2017-09-21T21:13:13.826Z,9.03
2017-09-21T21:15:42.136Z,8.87
2017-09-21T21:18:09.690Z,9.50
2017-09-21T21:20:37.267Z,9.50
2017-09-21T21:23:04.837Z,9.33
2017-09-21T21:25:33.143Z,9.10
2017-09-21T21:28:00.755Z,9.53
2017-09-21T21:30:28.295Z,9.03
2017-09-21T21:32:55.832Z,8.83
2017-09-21T21:35:23.366Z,9.13
2017-09-21T21:37:51.659Z,8.47
2017-09-21T21:40:19.216Z,9.10
2017-09-21T21:42:46.738Z,8.27
2017-09-21T21:45:14.322Z,9.43
2017-09-21T21:47:41.898Z,9.77
2017-09-21T21:50:09.468Z,10.23
2017-09-21T21:52:37.009Z,10.13
2017-09-21T21:55:04.877Z,9.37
2017-09-21T21:57:33.202Z,10.03
2017-09-21T22:00:00.735Z,10.03
2017-09-21T22:02:28.298Z,9.90
2017-09-21T22:04:55.842Z,10.07
2017-09-21T22:07:23.400Z,10.30
2017-09-21T22:09:50.957Z,9.23
2017-09-21T22:12:18.857Z,8.63
2017-09-21T22:14:46.405Z,8.37
2017-09-21T22:17:13.921Z,9.47
2017-09-21T22:19:42.253Z,9.90
2017-09-21T22:22:10.610Z,10.00
2017-09-21T22:24:38.173Z,9.37
2017-09-21T22:27:05.731Z,9.00
2017-09-21T22:29:33.268Z,9.00
2017-09-21T22:32:00.804Z,9.00
2017-09-21T22:34:29.129Z,9.63
2017-09-21T22:36:56.671Z,9.53
2017-09-21T22:39:24.193Z,10.60
2017-09-21T22:41:52.521Z,9.93
2017-09-21T22:44:20.060Z,10.20
2017-09-21T22:46:47.642Z,10.00
2017-09-21T22:49:15.216Z,10.47
2017-09-21T22:51:42.795Z,10.30
2017-09-21T22:54:10.346Z,10.63
2017-09-21T22:56:37.939Z,10.37
2017-09-21T22:59:05.836Z,10.87
2017-09-21T23:01:33.357Z,10.47
2017-09-21T23:04:01.648Z,9.73
2017-09-21T23:06:29.227Z,9.13
2017-09-21T23:08:56.762Z,8.90
2017-09-21T23:11:25.066Z,10.27
2017-09-21T23:13:52.607Z,10.83
2017-09-21T23:16:20.567Z,10.13
2017-09-21T23:18:48.869Z,10.97
2017-09-21T23:21:16.400Z,9.40
2017-09-21T23:23:43.963Z,11.63
2017-09-21T23:26:12.316Z,10.13
2017-09-21T23:28:40.623Z,10.83
2017-09-21T23:31:08.213Z,9.97
2017-09-21T23:33:35.764Z,9.97
2017-09-21T23:36:04.060Z,11.90
2017-09-21T23:38:31.627Z,9.40
2017-09-21T23:40:59.181Z,9.80
2017-09-21T23:43:26.719Z,11.67
2017-09-21T23:45:54.292Z,12.80
2017-09-21T23:48:22.371Z,12.80
2017-09-21T23:50:49.912Z,12.03
2017-09-21T23:53:17.463Z,10.43
2017-09-21T23:55:45.015Z,10.53
2017-09-21T23:58:12.533Z,10.30
